Lake Nepessing, Michigan
Current Conditions -  °F | °C
As of 11:54 AM on Thursday 30 Oct 2014 (Local Time) from KD95 Reporting Station
Overcast Overcast  
Wind Chill: 41°   Ceiling: 3800
Heat Index: 43°   Visibility: 10mi
Dew Point: 33°   Wind: 5mph
Humidity: 68%   Direction: 260°W
Pressure: 30.12"   Gusts: NA
Location:  43.0516°N, 83.3333°W
Report Text: KD95 301554Z AUTO 26004KT 10SM OVC038 06/01 A3012 RMK AO2 T00630008
Loading
Personal Weather Stations






























Interactive Weather Map
Tropical Storm Tracking
New forecast layout! Learn more

10-Day Weather Forecast

Advertisements
Track Severe Weather on mobile